Time;durP1;ratioP1;P1;durP2;ratioP2;P2;SDS_P1;SDS_P2;PMS_P1;PMS_P2;Temp;Humidity;BMP_temperature;BMP_pressure;BME280_temperature;BME280_humidity;BME280_pressure;Samples;Min_cycle;Max_cycle;Signal;HPM_P1;HPM_P2
2022/07/31 00:02:16;;;;;;;1.92;0.75;;;21.30;83.20;;;;;;5042901;28;20041;-79
2022/07/31 00:04:53;;;;;;;2.90;1.60;;;21.30;83.30;;;;;;5062800;28;20044;-78
2022/07/31 00:07:23;;;;;;;3.65;1.20;;;21.20;83.70;;;;;;5061450;28;20043;-79
2022/07/31 00:09:54;;;;;;;3.40;1.30;;;21.20;83.60;;;;;;5066289;28;20055;-79
2022/07/31 00:12:22;;;;;;;2.20;0.90;;;21.10;83.70;;;;;;5063386;28;20044;-80
2022/07/31 00:14:50;;;;;;;1.15;0.60;;;21.10;84.10;;;;;;5049492;28;20387;-79
2022/07/31 00:17:25;;;;;;;1.33;0.80;;;21.10;84.30;;;;;;5049631;28;20503;-80
2022/07/31 00:20:01;;;;;;;1.77;0.60;;;21.00;84.30;;;;;;5065488;28;20032;-79
2022/07/31 00:22:29;;;;;;;2.63;0.80;;;21.00;84.60;;;;;;5063033;28;20384;-79
2022/07/31 00:24:58;;;;;;;2.10;0.60;;;20.90;84.80;;;;;;5058264;28;20017;-79
2022/07/31 00:27:27;;;;;;;1.67;0.60;;;20.90;85.00;;;;;;5059061;28;20024;-79
2022/07/31 00:30:00;;;;;;;3.47;0.90;;;20.80;85.10;;;;;;5048825;28;20100;-79
2022/07/31 00:32:31;;;;;;;2.28;0.80;;;20.80;85.50;;;;;;5059828;28;20158;-79
2022/07/31 00:35:17;;;;;;;4.40;0.70;;;20.80;85.60;;;;;;5042299;28;20036;-79
2022/07/31 00:37:45;;;;;;;2.47;0.70;;;20.70;85.80;;;;;;5046202;28;20391;-79
2022/07/31 00:40:16;;;;;;;1.10;0.60;;;20.70;86.00;;;;;;5060763;28;20032;-79
2022/07/31 00:42:43;;;;;;;2.03;0.80;;;20.70;86.30;;;;;;5062546;28;20043;-79
2022/07/31 00:45:14;;;;;;;2.13;0.63;;;20.70;86.30;;;;;;5062553;28;20031;-79
2022/07/31 00:47:42;;;;;;;3.03;0.68;;;20.70;86.40;;;;;;5042561;28;20490;-79
2022/07/31 00:50:14;;;;;;;1.50;0.60;;;20.70;86.50;;;;;;5043488;28;20047;-80
2022/07/31 00:52:47;;;;;;;2.45;0.88;;;20.70;86.60;;;;;;5047018;28;20033;-78
2022/07/31 00:55:31;;;;;;;2.20;0.75;;;20.70;86.70;;;;;;5059532;28;20055;-78
2022/07/31 00:57:58;;;;;;;1.60;0.70;;;20.60;86.80;;;;;;5053847;28;20024;-78
2022/07/31 01:00:27;;;;;;;1.98;0.77;;;20.60;86.90;;;;;;5055800;28;20500;-79
2022/07/31 01:02:53;;;;;;;1.45;0.60;;;20.60;87.40;;;;;;5058716;28;20032;-79
2022/07/31 01:05:20;;;;;;;2.38;0.80;;;20.60;87.50;;;;;;5056486;28;20044;-79
2022/07/31 01:07:47;;;;;;;2.55;0.70;;;20.60;87.80;;;;;;5046364;28;20032;-79
2022/07/31 01:10:34;;;;;;;1.63;0.70;;;20.50;88.00;;;;;;5056787;28;20032;-80
2022/07/31 01:13:07;;;;;;;2.60;0.77;;;20.40;88.50;;;;;;5056470;28;20033;-79
2022/07/31 01:15:36;;;;;;;;;;;20.40;88.70;;;;;;5056566;28;20036;-78
2022/07/31 01:18:04;;;;;;;1.35;0.70;;;20.30;88.70;;;;;;5060956;28;19916;-79
2022/07/31 01:20:31;;;;;;;1.65;0.80;;;20.30;89.40;;;;;;5058812;28;20341;-79
2022/07/31 01:23:15;;;;;;;1.25;0.60;;;20.20;89.70;;;;;;5041352;28;20045;-80
2022/07/31 01:26:10;;;;;;;2.37;1.00;;;20.10;89.90;;;;;;5025991;28;20024;-79
2022/07/31 01:29:23;;;;;;;2.67;0.90;;;20.10;90.10;;;;;;5027772;28;20278;-79
2022/07/31 01:31:56;;;;;;;1.63;0.70;;;20.10;90.10;;;;;;5063067;28;20028;-79
2022/07/31 01:34:49;;;;;;;2.90;0.90;;;20.00;90.10;;;;;;5028349;28;20040;-79
2022/07/31 01:37:24;;;;;;;;;;;20.00;90.40;;;;;;5052656;28;20048;-79
2022/07/31 01:39:59;;;;;;;3.17;0.90;;;20.00;90.40;;;;;;5059972;28;20355;-79
2022/07/31 01:42:27;;;;;;;1.65;0.80;;;20.00;90.60;;;;;;5057329;28;20510;-79
2022/07/31 01:44:58;;;;;;;4.75;1.15;;;19.90;90.60;;;;;;5049698;28;20367;-80
2022/07/31 01:47:43;;;;;;;2.88;0.82;;;19.90;90.80;;;;;;5060518;28;21302;-80
2022/07/31 01:50:12;;;;;;;2.33;1.13;;;19.90;91.10;;;;;;5058045;28;20033;-80
2022/07/31 01:52:41;;;;;;;2.63;1.10;;;19.90;91.20;;;;;;5058143;28;20365;-80
2022/07/31 01:55:20;;;;;;;2.65;1.33;;;19.90;91.30;;;;;;5058289;28;20044;-83
2022/07/31 01:57:49;;;;;;;2.10;0.95;;;20.00;91.50;;;;;;5053466;28;20025;-79
2022/07/31 02:00:18;;;;;;;2.55;1.02;;;19.90;91.60;;;;;;5043827;28;20036;-78
2022/07/31 02:02:57;;;;;;;;;;;19.90;91.80;;;;;;5042875;28;20032;-79
2022/07/31 02:05:34;;;;;;;1.98;0.85;;;19.90;91.70;;;;;;5056028;28;19920;-79
2022/07/31 02:08:06;;;;;;;2.17;0.93;;;19.90;91.80;;;;;;5040051;28;20468;-79
2022/07/31 02:11:04;;;;;;;2.58;1.00;;;19.90;91.90;;;;;;5058193;28;20040;-78
2022/07/31 02:13:32;;;;;;;1.25;0.68;;;19.90;92.20;;;;;;5037618;28;20543;-79
2022/07/31 02:16:04;;;;;;;1.98;0.98;;;19.90;92.20;;;;;;5064445;28;20048;-79
2022/07/31 02:18:34;;;;;;;1.98;1.00;;;19.90;92.40;;;;;;5056246;28;20036;-79
2022/07/31 02:21:30;;;;;;;1.75;0.95;;;19.90;92.50;;;;;;5044712;28;20032;-78
2022/07/31 02:23:56;;;;;;;1.58;0.68;;;19.90;92.50;;;;;;5054910;28;20031;-79
2022/07/31 02:26:31;;;;;;;2.15;0.80;;;19.80;92.70;;;;;;5042279;28;20048;-77
2022/07/31 02:29:02;;;;;;;2.05;0.93;;;19.80;92.80;;;;;;5056309;28;20048;-78
2022/07/31 02:31:38;;;;;;;1.02;0.60;;;19.80;93.20;;;;;;5041611;28;20036;-79
2022/07/31 02:34:15;;;;;;;2.85;0.60;;;19.80;93.00;;;;;;5056658;28;20049;-79
2022/07/31 02:36:44;;;;;;;2.70;1.23;;;19.80;93.10;;;;;;5039245;28;20805;-75
2022/07/31 02:39:15;;;;;;;1.38;0.93;;;19.80;93.20;;;;;;5055406;28;20055;-75
2022/07/31 02:41:46;;;;;;;;;;;19.80;93.40;;;;;;5023615;28;20063;-77
2022/07/31 02:44:17;;;;;;;3.17;0.90;;;19.90;93.30;;;;;;5056584;28;19920;-76
2022/07/31 02:46:52;;;;;;;2.30;0.80;;;19.90;93.30;;;;;;5056239;28;20048;-77
2022/07/31 02:49:20;;;;;;;1.65;0.65;;;19.90;93.30;;;;;;5045598;28;20059;-76
2022/07/31 02:51:52;;;;;;;2.55;0.90;;;19.90;93.30;;;;;;5041415;28;20047;-77
2022/07/31 02:54:23;;;;;;;2.88;0.80;;;19.90;93.30;;;;;;5037435;28;20033;-77
2022/07/31 02:56:55;;;;;;;2.60;1.02;;;19.90;93.50;;;;;;5041644;28;20028;-75
2022/07/31 02:59:37;;;;;;;4.45;0.88;;;20.00;93.50;;;;;;5043152;28;20419;-76
2022/07/31 03:02:11;;;;;;;2.92;0.80;;;19.90;93.60;;;;;;5038667;28;20025;-74
2022/07/31 03:04:43;;;;;;;1.73;0.85;;;20.00;93.70;;;;;;5055188;28;20035;-77
2022/07/31 03:07:16;;;;;;;1.50;0.80;;;20.00;93.80;;;;;;5059302;28;20488;-76
2022/07/31 03:09:48;;;;;;;2.72;1.05;;;20.00;94.00;;;;;;5058928;28;20028;-78
2022/07/31 03:12:38;;;;;;;1.55;0.80;;;20.00;94.10;;;;;;5044558;28;20044;-77
2022/07/31 03:15:13;;;;;;;1.80;0.90;;;20.00;94.10;;;;;;5041188;28;20043;-77
2022/07/31 03:17:50;;;;;;;2.08;0.80;;;19.90;94.30;;;;;;5040660;28;20052;-75
2022/07/31 03:20:27;;;;;;;2.05;0.90;;;19.90;94.40;;;;;;5057358;28;20044;-76
2022/07/31 03:23:01;;;;;;;2.03;0.90;;;20.00;94.50;;;;;;5056502;28;20392;-78
2022/07/31 03:25:28;;;;;;;3.03;0.98;;;20.00;94.70;;;;;;5041111;28;20048;-76
2022/07/31 03:28:02;;;;;;;2.85;0.90;;;20.00;94.80;;;;;;5054775;28;20639;-75
2022/07/31 03:30:28;;;;;;;2.40;1.10;;;20.00;94.80;;;;;;5040103;28;20048;-76
2022/07/31 03:32:56;;;;;;;5.05;1.00;;;20.00;94.90;;;;;;5055714;28;20029;-77
2022/07/31 03:35:24;;;;;;;1.88;0.77;;;20.00;95.00;;;;;;5035812;28;20502;-75
2022/07/31 03:37:55;;;;;;;2.22;1.05;;;20.00;95.00;;;;;;5055879;28;20040;-76
2022/07/31 03:40:28;;;;;;;1.63;0.80;;;20.00;95.20;;;;;;5024693;28;20456;-76
2022/07/31 03:42:59;;;;;;;1.38;0.82;;;20.00;95.20;;;;;;5036293;28;20028;-76
2022/07/31 03:45:26;;;;;;;1.98;1.10;;;20.00;95.20;;;;;;5055311;28;20794;-74
2022/07/31 03:47:54;;;;;;;2.08;0.70;;;20.00;95.20;;;;;;5048679;28;20033;-75
2022/07/31 03:50:21;;;;;;;2.10;0.70;;;19.90;95.30;;;;;;5050537;28;20698;-75
2022/07/31 03:52:49;;;;;;;2.58;0.82;;;19.90;95.30;;;;;;5032528;28;20031;-76
2022/07/31 03:55:16;;;;;;;2.45;1.00;;;19.90;95.30;;;;;;5033198;28;20028;-75
2022/07/31 03:57:43;;;;;;;1.90;0.88;;;19.90;95.40;;;;;;5037111;28;20029;-80
2022/07/31 04:00:26;;;;;;;1.52;0.82;;;19.90;95.40;;;;;;5049699;28;20045;-79
2022/07/31 04:03:25;;;;;;;2.83;0.70;;;19.90;95.50;;;;;;5026654;28;20041;-89
2022/07/31 04:05:59;;;;;;;1.85;0.70;;;19.90;95.60;;;;;;5055342;28;20059;-84
2022/07/31 04:08:53;;;;;;;1.10;0.57;;;19.90;95.60;;;;;;5040322;28;20040;-89
2022/07/31 04:11:20;;;;;;;1.80;0.70;;;19.90;95.60;;;;;;5051185;28;20538;-81
2022/07/31 04:13:47;;;;;;;1.73;0.60;;;19.90;95.70;;;;;;5041265;28;20060;-79
2022/07/31 04:16:13;;;;;;;1.20;0.80;;;19.90;95.60;;;;;;5032562;28;20045;-78
2022/07/31 04:18:40;;;;;;;2.30;0.80;;;19.90;95.70;;;;;;5051324;28;20047;-79
2022/07/31 04:21:06;;;;;;;1.52;0.90;;;19.80;95.70;;;;;;5018231;28;20300;-80
2022/07/31 04:23:33;;;;;;;1.58;0.90;;;19.80;95.80;;;;;;5032701;28;20039;-80
2022/07/31 04:26:25;;;;;;;2.97;1.00;;;19.90;95.90;;;;;;5049145;28;20034;-80
2022/07/31 04:28:58;;;;;;;2.15;1.42;;;19.90;95.90;;;;;;5033632;28;20051;-80
2022/07/31 04:31:25;;;;;;;3.30;1.33;;;19.90;96.00;;;;;;5035961;28;20028;-80
2022/07/31 04:33:54;;;;;;;2.95;1.30;;;19.90;96.00;;;;;;5049270;28;20016;-79
2022/07/31 04:36:21;;;;;;;2.03;1.75;;;19.90;96.00;;;;;;5034840;28;20060;-79
2022/07/31 04:38:47;;;;;;;1.80;1.25;;;19.90;96.20;;;;;;5040149;28;20443;-86
2022/07/31 04:41:16;;;;;;;1.48;0.98;;;19.90;96.20;;;;;;5003166;28;20036;-87
2022/07/31 04:43:43;;;;;;;2.75;1.23;;;19.90;96.50;;;;;;5020057;28;22548;-86
2022/07/31 04:46:10;;;;;;;4.07;1.30;;;19.90;96.30;;;;;;5020480;28;20044;-86
2022/07/31 04:48:48;;;;;;;3.28;1.08;;;19.90;96.40;;;;;;5041101;28;20481;-85
2022/07/31 04:54:42;;;;;;;3.88;1.10;;;20.00;96.70;;;;;;5058045;22;20524;-85
2022/07/31 04:58:05;;;;;;;2.03;0.95;;;20.00;96.70;;;;;;4953597;28;20497;-85
2022/07/31 05:01:25;;;;;;;1.90;0.90;;;20.00;96.80;;;;;;4947350;28;20106;-85
2022/07/31 05:08:31;;;;;;;1.50;0.80;;;20.20;96.90;;;;;;4901837;29;20289;-84
2022/07/31 05:11:21;;;;;;;4.35;0.80;;;20.20;96.80;;;;;;4882962;29;20048;-85
2022/07/31 05:14:18;;;;;;;3.03;1.15;;;20.30;97.00;;;;;;4886677;29;20964;-84
2022/07/31 05:21:32;;;;;;;2.40;1.13;;;20.30;97.30;;;;;;4882982;29;20052;-85
2022/07/31 05:24:57;;;;;;;3.53;1.50;;;20.40;97.70;;;;;;4879269;29;20435;-85
2022/07/31 05:28:20;;;;;;;3.58;1.75;;;20.40;97.80;;;;;;4864354;29;20539;-85
2022/07/31 05:30:53;;;;;;;4.03;2.15;;;20.50;97.80;;;;;;4872201;29;20037;-84
2022/07/31 05:34:46;;;;;;;5.05;2.50;;;20.50;98.00;;;;;;4861623;29;20301;-84
2022/07/31 05:37:42;;;;;;;3.70;2.08;;;20.60;98.00;;;;;;4832730;29;20045;-84
2022/07/31 05:47:53;;;;;;;2.63;1.73;;;21.10;98.10;;;;;;4841648;29;20044;-84
2022/07/31 05:50:22;;;;;;;;;;;21.20;98.10;;;;;;4846726;29;20060;-83
2022/07/31 05:52:49;;;;;;;3.38;1.92;;;21.30;98.00;;;;;;4844023;29;19908;-83
2022/07/31 05:55:48;;;;;;;6.22;3.72;;;21.40;97.90;;;;;;4817636;29;20045;-85
2022/07/31 05:58:56;;;;;;;4.90;3.72;;;21.40;97.90;;;;;;4905283;29;20059;-86
2022/07/31 06:01:29;;;;;;;5.38;2.83;;;21.40;97.90;;;;;;4867402;29;20036;-84
2022/07/31 06:04:23;;;;;;;;;;;;;;;;;;;;;
2022/07/31 06:07:40;;;;;;;8.55;4.18;;;21.40;98.10;;;;;;4966165;28;20065;-86
2022/07/31 06:10:24;;;;;;;4.72;2.53;;;21.20;98.10;;;;;;4947224;28;20390;-87
2022/07/31 06:13:19;;;;;;;6.00;4.30;;;21.20;98.10;;;;;;4991858;28;20042;-85
2022/07/31 06:20:39;;;;;;;4.53;3.20;;;21.00;98.30;;;;;;4936167;28;20055;-84
2022/07/31 06:23:36;;;;;;;;;;;;;;;;;;;;;
2022/07/31 06:26:43;;;;;;;6.18;4.50;;;21.00;98.50;;;;;;4907199;28;20135;-86
2022/07/31 06:29:36;;;;;;;8.48;5.68;;;20.90;98.60;;;;;;4911515;28;20051;-87
2022/07/31 06:32:51;;;;;;;6.32;4.88;;;20.90;98.80;;;;;;4917111;28;20044;-86
2022/07/31 06:35:30;;;;;;;8.30;5.82;;;20.90;98.90;;;;;;4914260;28;20051;-86
2022/07/31 06:41:55;;;;;;;5.70;4.43;;;21.10;99.10;;;;;;4907361;29;20025;-87
2022/07/31 06:45:00;;;;;;;5.05;3.53;;;21.20;99.20;;;;;;4934746;28;20046;-87
2022/07/31 06:48:32;;;;;;;5.07;4.03;;;21.30;99.20;;;;;;4897881;29;20449;-86
2022/07/31 06:51:58;;;;;;;5.22;4.45;;;21.40;99.20;;;;;;4900547;29;20212;-86
2022/07/31 06:54:26;;;;;;;7.20;4.72;;;21.60;99.20;;;;;;4876527;29;20053;-86
2022/07/31 06:57:22;;;;;;;8.32;5.97;;;21.70;99.20;;;;;;4884737;29;20036;-87
2022/07/31 07:00:24;;;;;;;9.65;5.05;;;21.80;99.20;;;;;;4890204;29;20044;-89
2022/07/31 07:03:51;;;;;;;;;;;;;;;;;;;;;
2022/07/31 07:07:01;;;;;;;10.20;6.93;;;21.80;99.10;;;;;;4864756;29;20067;-86
2022/07/31 07:10:15;;;;;;;9.57;6.55;;;21.80;99.10;;;;;;4837519;29;20049;-86
2022/07/31 07:13:21;;;;;;;9.48;5.82;;;21.70;99.10;;;;;;4799642;29;20078;-86
2022/07/31 07:19:43;;;;;;;9.02;6.00;;;21.70;99.00;;;;;;4914639;29;20479;-88
2022/07/31 07:22:55;;;;;;;;;;;;;;;;;;;;;
2022/07/31 07:26:18;;;;;;;;;;;;;;;;;;;;;
2022/07/31 07:29:23;;;;;;;8.80;5.60;;;21.80;99.00;;;;;;4983262;28;20041;-86
2022/07/31 07:32:11;;;;;;;6.25;5.28;;;21.80;98.90;;;;;;4974637;28;20044;-85
2022/07/31 07:35:08;;;;;;;9.02;6.20;;;21.90;98.80;;;;;;4961155;28;20045;-86
2022/07/31 07:38:37;;;;;;;8.18;7.25;;;22.00;98.80;;;;;;4941245;28;20445;-85
2022/07/31 07:42:00;;;;;;;7.80;5.13;;;22.00;98.70;;;;;;4957355;28;20041;-88
2022/07/31 07:45:33;;;;;;;6.10;5.32;;;22.00;98.80;;;;;;4917480;29;20047;-86
2022/07/31 07:48:33;;;;;;;5.30;4.78;;;22.00;99.40;;;;;;4890431;29;20082;-87
2022/07/31 07:57:48;;;;;;;7.00;5.95;;;22.10;99.60;;;;;;4914291;29;20051;-85
2022/07/31 08:02:39;;;;;;;7.20;6.28;;;22.00;99.60;;;;;;4868131;29;20052;-85
2022/07/31 08:10:21;;;;;;;;;;;;;;;;;;;;;
2022/07/31 08:14:32;;;;;;;5.32;4.00;;;22.00;99.70;;;;;;4828207;29;20463;-84
2022/07/31 08:18:16;;;;;;;4.88;3.47;;;22.00;99.70;;;;;;4855996;29;20055;-85
2022/07/31 08:25:25;;;;;;;6.18;5.03;;;22.40;99.40;;;;;;4840101;29;20059;-83
2022/07/31 08:27:58;;;;;;;8.50;6.97;;;22.60;99.20;;;;;;4864102;29;20047;-81
2022/07/31 08:30:26;;;;;;;11.00;9.32;;;22.60;99.10;;;;;;4915381;29;20040;-81
2022/07/31 08:32:57;;;;;;;11.13;8.35;;;22.60;99.00;;;;;;4884488;29;20036;-81
2022/07/31 08:35:35;;;;;;;6.38;5.38;;;22.70;99.10;;;;;;4897849;29;20523;-83
2022/07/31 08:38:22;;;;;;;;;;;;;;;;;;;;;
2022/07/31 08:41:37;;;;;;;10.27;6.55;;;22.90;98.90;;;;;;4925702;28;20403;-87
2022/07/31 08:44:35;;;;;;;7.07;5.78;;;23.10;98.80;;;;;;4891255;28;20479;-87
2022/07/31 08:47:40;;;;;;;6.93;5.57;;;23.20;98.70;;;;;;4920630;28;20050;-88
2022/07/31 08:51:09;;;;;;;7.50;4.65;;;23.50;98.30;;;;;;4892019;29;20052;-89
2022/07/31 08:54:18;;;;;;;6.35;4.72;;;23.70;98.10;;;;;;4885832;29;20851;-84
2022/07/31 08:59:51;;;;;;;7.50;5.80;;;24.20;97.70;;;;;;4911399;28;20034;-83
2022/07/31 09:02:47;;;;;;;5.88;5.03;;;24.40;97.30;;;;;;4970537;28;20029;-84
2022/07/31 09:05:21;;;;;;;4.13;3.45;;;24.50;97.10;;;;;;4947137;28;20042;-85
2022/07/31 09:08:36;;;;;;;5.95;3.80;;;24.60;96.90;;;;;;4951037;28;20054;-83
2022/07/31 09:11:18;;;;;;;5.97;3.65;;;24.80;96.70;;;;;;4952382;28;20038;-83
2022/07/31 09:14:38;;;;;;;4.72;4.10;;;24.80;96.50;;;;;;4946647;28;20382;-84
2022/07/31 09:26:14;;;;;;;5.95;4.00;;;24.80;96.10;;;;;;4907338;28;20381;-85
2022/07/31 09:29:51;;;;;;;8.20;5.07;;;24.80;96.20;;;;;;4829179;29;20049;-84
2022/07/31 09:32:49;;;;;;;7.13;5.50;;;24.90;96.40;;;;;;4849435;29;20380;-84
2022/07/31 09:40:11;;;;;;;5.68;3.80;;;24.90;96.60;;;;;;4928264;29;20062;-85
2022/07/31 09:44:01;;;;;;;8.60;4.55;;;25.00;96.60;;;;;;4845617;29;20504;-85
2022/07/31 09:47:26;;;;;;;;;;;;;;;;;;;;;
2022/07/31 09:50:26;;;;;;;5.05;4.45;;;25.10;96.70;;;;;;4811974;29;20058;-86
2022/07/31 09:53:16;;;;;;;6.10;5.25;;;25.20;96.90;;;;;;4830743;29;20050;-85
2022/07/31 09:59:17;;;;;;;6.10;4.97;;;24.80;97.30;;;;;;4886959;29;20047;-84
2022/07/31 10:01:50;;;;;;;8.25;6.43;;;24.60;97.70;;;;;;4903958;29;20043;-84
2022/07/31 10:04:52;;;;;;;;;;;;;;;;;;;;;
2022/07/31 10:08:00;;;;;;;6.13;5.07;;;24.50;98.40;;;;;;4902353;29;20039;-83
2022/07/31 10:11:32;;;;;;;5.82;4.70;;;24.40;98.60;;;;;;4891142;28;20058;-84
2022/07/31 10:14:31;;;;;;;6.70;5.82;;;24.40;98.90;;;;;;4948593;28;20056;-83
2022/07/31 10:17:28;;;;;;;9.10;5.97;;;24.40;99.20;;;;;;4975748;28;20504;-83
2022/07/31 10:20:34;;;;;;;7.68;6.22;;;24.20;99.60;;;;;;4956831;28;20039;-83
2022/07/31 10:23:42;;;;;;;7.85;6.78;;;24.00;99.90;;;;;;4942019;28;20039;-83
2022/07/31 10:26:21;;;;;;;6.82;6.00;;;23.80;99.90;;;;;;4940952;28;20047;-83
2022/07/31 10:29:10;;;;;;;7.95;6.80;;;23.70;99.90;;;;;;4942825;28;20684;-84
2022/07/31 10:32:24;;;;;;;8.15;7.10;;;23.80;99.90;;;;;;4916974;29;20067;-84
2022/07/31 10:35:38;;;;;;;7.63;6.80;;;23.90;99.90;;;;;;4892717;29;20051;-84
2022/07/31 10:39:23;;;;;;;9.02;6.75;;;24.10;99.90;;;;;;4922303;29;20043;-84
2022/07/31 10:43:07;;;;;;;9.70;6.90;;;24.20;99.90;;;;;;4857252;29;20037;-82
2022/07/31 10:46:10;;;;;;;8.48;6.95;;;24.20;99.90;;;;;;4846125;29;20057;-82
2022/07/31 10:49:06;;;;;;;11.20;9.18;;;24.30;99.90;;;;;;4892094;29;20511;-82
2022/07/31 10:52:36;;;;;;;8.77;7.35;;;24.20;99.90;;;;;;4927149;28;20051;-82
2022/07/31 10:55:24;;;;;;;8.68;7.13;;;24.20;99.90;;;;;;4916427;28;20373;-82
2022/07/31 10:58:50;;;;;;;10.65;9.55;;;24.40;99.90;;;;;;4949198;28;20050;-80
2022/07/31 11:01:52;;;;;;;10.27;7.63;;;24.60;99.90;;;;;;4914275;28;20049;-79
2022/07/31 11:04:45;;;;;;;8.18;7.38;;;24.60;99.90;;;;;;4928866;28;20042;-81
2022/07/31 11:07:24;;;;;;;9.88;8.88;;;24.70;99.90;;;;;;4941323;28;20514;-81
2022/07/31 11:10:19;;;;;;;10.85;8.90;;;24.70;99.90;;;;;;4924472;28;20034;-81
2022/07/31 11:13:06;;;;;;;7.15;6.45;;;24.80;99.90;;;;;;4961954;28;20049;-82
2022/07/31 11:15:57;;;;;;;8.10;7.38;;;24.70;99.90;;;;;;4943137;28;20038;-82
2022/07/31 11:18:59;;;;;;;12.65;11.43;;;24.60;99.90;;;;;;4961853;28;20046;-82
2022/07/31 11:21:49;;;;;;;9.50;8.57;;;24.40;99.90;;;;;;4934714;28;20042;-82
2022/07/31 11:24:51;;;;;;;11.25;9.60;;;24.20;99.90;;;;;;4976098;28;20050;-83
2022/07/31 11:27:34;;;;;;;8.30;7.55;;;24.10;99.90;;;;;;4969864;28;20037;-82
2022/07/31 11:30:25;;;;;;;10.88;9.88;;;24.10;99.90;;;;;;4985049;28;20481;-85
2022/07/31 11:36:25;;;;;;;10.05;9.05;;;24.30;99.90;;;;;;4983113;28;19917;-81
2022/07/31 11:39:00;;;;;;;12.35;11.15;;;24.30;99.90;;;;;;4959574;28;20059;-82
2022/07/31 11:41:29;;;;;;;13.17;11.90;;;24.40;99.90;;;;;;4952865;28;20026;-82
2022/07/31 11:43:57;;;;;;;11.02;10.02;;;24.40;99.90;;;;;;4944787;28;20289;-81
2022/07/31 11:46:27;;;;;;;11.98;10.88;;;24.30;99.90;;;;;;4961590;28;20030;-85
2022/07/31 11:48:58;;;;;;;10.35;9.45;;;24.30;99.90;;;;;;4962405;28;20045;-83
2022/07/31 11:51:35;;;;;;;12.43;11.23;;;24.30;99.90;;;;;;4980375;28;20033;-83
2022/07/31 11:54:34;;;;;;;12.43;11.35;;;24.20;99.90;;;;;;4962400;28;20034;-85
2022/07/31 11:58:07;;;;;;;11.10;10.13;;;24.10;99.90;;;;;;4987534;28;20437;-83
2022/07/31 12:00:56;;;;;;;16.98;15.52;;;24.00;99.90;;;;;;4991512;28;20046;-82
2022/07/31 12:03:35;;;;;;;11.27;10.38;;;24.00;99.90;;;;;;5014821;28;20025;-83
2022/07/31 12:06:20;;;;;;;13.18;11.90;;;24.60;99.90;;;;;;5008353;28;20026;-84
2022/07/31 12:08:51;;;;;;;11.93;10.98;;;25.50;99.90;;;;;;4996807;28;20072;-84
2022/07/31 12:12:16;;;;;;;;;;;;;;;;;;;;;
2022/07/31 12:15:17;;;;;;;11.60;10.55;;;26.50;99.90;;;;;;4983234;28;20045;-86
2022/07/31 12:19:12;;;;;;;11.13;10.02;;;26.60;99.90;;;;;;4980323;28;20071;-88
2022/07/31 12:22:19;;;;;;;9.32;8.63;;;26.20;99.90;;;;;;4924887;28;20412;-81
2022/07/31 12:28:35;;;;;;;7.35;6.75;;;25.40;99.90;;;;;;4990483;28;20036;-84
2022/07/31 12:31:15;;;;;;;8.18;7.47;;;25.20;99.90;;;;;;4987603;28;21240;-81
2022/07/31 12:37:29;;;;;;;5.60;5.13;;;25.10;99.90;;;;;;4986577;28;21217;-84
2022/07/31 12:40:02;;;;;;;6.30;5.70;;;25.10;99.90;;;;;;4972353;28;20064;-87
2022/07/31 12:42:54;;;;;;;;;;;25.20;99.90;;;;;;4974801;28;20048;-91
2022/07/31 12:45:53;;;;;;;5.88;5.38;;;25.10;99.90;;;;;;4986831;28;19928;-93
2022/07/31 12:48:51;;;;;;;4.93;4.40;;;25.10;99.90;;;;;;4977979;28;20392;-85
2022/07/31 12:56:48;;;;;;;6.50;5.82;;;24.80;99.90;;;;;;5018439;28;20048;-87
2022/07/31 12:59:51;;;;;;;4.57;4.18;;;24.70;99.90;;;;;;5019140;28;20044;-83
2022/07/31 13:03:07;;;;;;;6.47;3.65;;;25.10;99.90;;;;;;4929993;28;20055;-81
2022/07/31 13:10:27;;;;;;;3.42;2.30;;;25.80;99.90;;;;;;4942085;28;20080;-81
2022/07/31 13:13:02;;;;;;;3.60;2.80;;;25.60;99.90;;;;;;4945875;28;20038;-80
2022/07/31 13:20:29;;;;;;;3.65;2.47;;;25.50;99.90;;;;;;4959774;28;20039;-83
2022/07/31 13:24:27;;;;;;;3.33;2.35;;;25.90;99.90;;;;;;4935011;28;20039;-80
2022/07/31 13:27:21;;;;;;;3.83;2.25;;;26.30;99.90;;;;;;4944092;28;20043;-79
2022/07/31 13:30:08;;;;;;;;;;;;;;;;;;;;;
2022/07/31 13:33:50;;;;;;;6.30;2.88;;;26.90;99.40;;;;;;4965232;28;20049;-84
2022/07/31 13:36:35;;;;;;;3.90;2.78;;;27.00;99.10;;;;;;4954768;28;20054;-79
2022/07/31 13:39:10;;;;;;;4.40;2.85;;;27.10;98.80;;;;;;4963246;28;20039;-79
2022/07/31 13:45:28;;;;;;;4.10;2.40;;;26.70;98.50;;;;;;4961845;28;20034;-82
2022/07/31 13:52:20;;;;;;;4.25;2.30;;;27.00;98.50;;;;;;4962652;28;20034;-87
2022/07/31 13:54:59;;;;;;;5.30;2.40;;;27.10;98.20;;;;;;4951883;28;20046;-81
2022/07/31 13:58:20;;;;;;;4.75;3.50;;;26.90;98.20;;;;;;4964635;28;21013;-85
2022/07/31 14:00:49;;;;;;;4.22;3.83;;;26.90;98.10;;;;;;4908410;29;20056;-86
2022/07/31 14:03:17;;;;;;;6.25;3.30;;;26.90;97.80;;;;;;4890913;29;20043;-86
2022/07/31 14:06:07;;;;;;;4.05;2.70;;;27.10;97.80;;;;;;4878322;29;20037;-85
2022/07/31 14:09:14;;;;;;;6.45;4.10;;;27.50;97.10;;;;;;4881425;29;20049;-85
2022/07/31 14:11:46;;;;;;;4.68;2.70;;;27.80;96.40;;;;;;4913746;29;20048;-84
2022/07/31 14:14:50;;;;;;;3.55;2.55;;;27.70;96.30;;;;;;4912847;29;21754;-81
2022/07/31 14:17:49;;;;;;;5.20;3.00;;;27.40;96.60;;;;;;4918853;29;20523;-81
2022/07/31 14:20:20;;;;;;;3.13;2.00;;;27.00;96.50;;;;;;4911977;29;20059;-84
2022/07/31 14:23:12;;;;;;;3.45;2.35;;;26.70;97.10;;;;;;4914326;29;20028;-84
2022/07/31 14:26:07;;;;;;;4.97;2.20;;;26.40;97.30;;;;;;4878686;29;20039;-88
2022/07/31 14:28:53;;;;;;;4.22;1.98;;;26.20;97.50;;;;;;4941359;28;20034;-88
2022/07/31 14:31:23;;;;;;;2.97;1.50;;;26.20;97.70;;;;;;4930069;29;20073;-83
2022/07/31 14:33:54;;;;;;;2.80;1.67;;;26.10;98.00;;;;;;4895547;29;20050;-82
2022/07/31 14:36:29;;;;;;;4.13;2.42;;;26.20;97.90;;;;;;4933701;28;20038;-83
2022/07/31 14:38:58;;;;;;;3.20;1.48;;;26.30;97.60;;;;;;4966053;28;20037;-83
2022/07/31 14:41:25;;;;;;;3.10;1.45;;;26.40;97.50;;;;;;4980654;28;20063;-85
2022/07/31 14:43:55;;;;;;;2.85;1.45;;;26.40;97.60;;;;;;4947630;28;20030;-82
2022/07/31 14:46:24;;;;;;;4.15;1.20;;;26.50;97.70;;;;;;4976896;28;20037;-80
2022/07/31 14:49:05;;;;;;;;;;;;;;;;;;;;;
2022/07/31 14:51:38;;;;;;;3.85;1.33;;;26.50;97.50;;;;;;4965763;28;22612;-83
2022/07/31 14:54:12;;;;;;;2.85;1.67;;;26.50;97.10;;;;;;4983969;28;20054;-82
2022/07/31 14:56:46;;;;;;;4.85;2.03;;;26.40;96.90;;;;;;4978143;28;20060;-83
2022/07/31 15:00:02;;;;;;;3.45;1.67;;;26.30;96.90;;;;;;4990009;28;20053;-78
2022/07/31 15:03:16;;;;;;;2.95;1.70;;;26.10;97.10;;;;;;4998515;28;20089;-78
2022/07/31 15:06:09;;;;;;;2.67;1.40;;;26.10;97.20;;;;;;4973928;28;20609;-78
2022/07/31 15:08:42;;;;;;;3.10;1.80;;;25.90;97.20;;;;;;4970630;28;20405;-78
2022/07/31 15:12:08;;;;;;;4.97;2.10;;;25.70;97.40;;;;;;4962847;28;20033;-80
2022/07/31 15:18:15;;;;;;;2.33;1.38;;;25.00;99.50;;;;;;4903516;29;20047;-79
2022/07/31 15:20:59;;;;;;;2.78;1.80;;;24.70;99.90;;;;;;4890052;29;20479;-78
2022/07/31 15:23:26;;;;;;;2.70;1.60;;;24.50;99.90;;;;;;4917022;29;20039;-76
2022/07/31 15:25:57;;;;;;;3.33;1.95;;;24.30;99.90;;;;;;4881139;29;20032;-77
2022/07/31 15:28:41;;;;;;;3.08;1.30;;;24.30;99.90;;;;;;4933270;28;20054;-77
2022/07/31 15:31:19;;;;;;;1.58;0.98;;;24.30;99.90;;;;;;4977972;28;20046;-78
2022/07/31 15:33:46;;;;;;;2.20;1.30;;;24.40;99.90;;;;;;4949845;28;22650;-77
2022/07/31 15:36:22;;;;;;;1.60;0.98;;;24.50;99.90;;;;;;4934271;28;20053;-78
2022/07/31 15:39:00;;;;;;;1.70;1.10;;;24.70;99.90;;;;;;4998144;28;20029;-77
2022/07/31 15:41:33;;;;;;;1.65;0.98;;;25.10;99.90;;;;;;4980302;28;20033;-77
2022/07/31 15:44:49;;;;;;;1.80;0.95;;;25.50;99.90;;;;;;4995665;28;20049;-78
2022/07/31 15:47:58;;;;;;;2.25;1.00;;;25.80;99.90;;;;;;4969488;28;20497;-78
2022/07/31 15:50:35;;;;;;;3.30;0.80;;;25.90;99.90;;;;;;5002134;28;20037;-77
2022/07/31 15:53:04;;;;;;;1.60;0.90;;;25.80;99.90;;;;;;4984386;28;20223;-78
2022/07/31 15:55:35;;;;;;;1.20;0.70;;;25.60;99.80;;;;;;4982404;28;20385;-78
2022/07/31 15:58:02;;;;;;;1.30;0.70;;;25.50;99.90;;;;;;4967631;28;20050;-78
2022/07/31 16:00:32;;;;;;;1.65;0.90;;;25.40;99.90;;;;;;5018060;28;20036;-78
2022/07/31 16:03:19;;;;;;;1.52;0.98;;;25.50;99.90;;;;;;5002421;28;21250;-78
2022/07/31 16:06:02;;;;;;;1.55;0.88;;;25.60;99.90;;;;;;4993595;28;20630;-78
2022/07/31 16:08:34;;;;;;;2.03;1.20;;;25.60;99.90;;;;;;4982133;28;20029;-77
2022/07/31 16:11:05;;;;;;;2.00;1.33;;;25.50;99.90;;;;;;4982473;28;20037;-77
2022/07/31 16:13:37;;;;;;;2.17;1.27;;;25.60;99.90;;;;;;4998507;28;20046;-77
2022/07/31 16:16:23;;;;;;;3.05;1.02;;;25.70;99.70;;;;;;4981581;28;20053;-76
2022/07/31 16:18:50;;;;;;;1.98;1.00;;;25.70;99.10;;;;;;4997879;28;20034;-76
2022/07/31 16:21:25;;;;;;;2.47;1.23;;;25.60;99.30;;;;;;4969579;28;20029;-77
2022/07/31 16:23:58;;;;;;;1.40;0.80;;;25.50;99.10;;;;;;4998281;28;20018;-76
2022/07/31 16:26:26;;;;;;;1.60;1.10;;;25.30;99.20;;;;;;4993846;28;20033;-77
2022/07/31 16:28:54;;;;;;;2.08;1.13;;;25.20;99.30;;;;;;4967487;28;21895;-77